sensor_id;sensor_type;location;lat;lon;timestamp;P1;durP1;ratioP1;P2;durP2;ratioP2
47772;SDS011;33534;51.028;13.716;2022-08-19T00:02:11;14.50;;;13.00;;
47772;SDS011;33534;51.028;13.716;2022-08-19T00:04:37;16.35;;;14.55;;
47772;SDS011;33534;51.028;13.716;2022-08-19T00:07:03;18.15;;;14.50;;
47772;SDS011;33534;51.028;13.716;2022-08-19T00:09:30;15.23;;;13.60;;
47772;SDS011;33534;51.028;13.716;2022-08-19T00:11:57;17.23;;;15.40;;
47772;SDS011;33534;51.028;13.716;2022-08-19T00:14:24;19.20;;;16.55;;
47772;SDS011;33534;51.028;13.716;2022-08-19T00:16:50;24.50;;;15.40;;
47772;SDS011;33534;51.028;13.716;2022-08-19T00:19:19;14.55;;;13.05;;
47772;SDS011;33534;51.028;13.716;2022-08-19T00:21:45;17.30;;;15.60;;
47772;SDS011;33534;51.028;13.716;2022-08-19T00:24:12;17.40;;;15.70;;
47772;SDS011;33534;51.028;13.716;2022-08-19T00:26:39;16.92;;;15.18;;
47772;SDS011;33534;51.028;13.716;2022-08-19T00:29:06;18.75;;;16.25;;
47772;SDS011;33534;51.028;13.716;2022-08-19T00:31:33;17.80;;;16.00;;
47772;SDS011;33534;51.028;13.716;2022-08-19T00:33:59;14.65;;;13.18;;
47772;SDS011;33534;51.028;13.716;2022-08-19T00:36:25;17.55;;;15.65;;
47772;SDS011;33534;51.028;13.716;2022-08-19T00:38:50;22.25;;;15.63;;
47772;SDS011;33534;51.028;13.716;2022-08-19T00:41:18;19.15;;;15.77;;
47772;SDS011;33534;51.028;13.716;2022-08-19T00:46:40;18.45;;;15.82;;
47772;SDS011;33534;51.028;13.716;2022-08-19T00:49:10;16.83;;;14.95;;
47772;SDS011;33534;51.028;13.716;2022-08-19T00:51:42;18.52;;;16.55;;
47772;SDS011;33534;51.028;13.716;2022-08-19T00:54:11;16.77;;;14.95;;
47772;SDS011;33534;51.028;13.716;2022-08-19T00:56:37;17.67;;;15.75;;
47772;SDS011;33534;51.028;13.716;2022-08-19T00:59:03;17.77;;;13.88;;
47772;SDS011;33534;51.028;13.716;2022-08-19T01:01:34;18.30;;;16.00;;
47772;SDS011;33534;51.028;13.716;2022-08-19T01:04:03;18.17;;;16.35;;
47772;SDS011;33534;51.028;13.716;2022-08-19T01:06:29;19.83;;;16.65;;
47772;SDS011;33534;51.028;13.716;2022-08-19T01:08:57;18.50;;;16.55;;
47772;SDS011;33534;51.028;13.716;2022-08-19T01:11:24;19.00;;;16.15;;
47772;SDS011;33534;51.028;13.716;2022-08-19T01:13:52;17.48;;;14.07;;
47772;SDS011;33534;51.028;13.716;2022-08-19T01:16:19;16.60;;;15.10;;
47772;SDS011;33534;51.028;13.716;2022-08-19T01:18:47;18.35;;;16.00;;
47772;SDS011;33534;51.028;13.716;2022-08-19T01:21:18;19.10;;;15.30;;
47772;SDS011;33534;51.028;13.716;2022-08-19T01:23:51;16.70;;;15.02;;
47772;SDS011;33534;51.028;13.716;2022-08-19T01:26:18;17.55;;;15.75;;
47772;SDS011;33534;51.028;13.716;2022-08-19T01:28:48;16.33;;;14.23;;
47772;SDS011;33534;51.028;13.716;2022-08-19T01:31:18;15.50;;;13.90;;
47772;SDS011;33534;51.028;13.716;2022-08-19T01:33:46;16.58;;;14.77;;
47772;SDS011;33534;51.028;13.716;2022-08-19T01:36:15;17.90;;;15.32;;
47772;SDS011;33534;51.028;13.716;2022-08-19T01:38:47;16.48;;;14.77;;
47772;SDS011;33534;51.028;13.716;2022-08-19T01:41:13;16.42;;;14.82;;
47772;SDS011;33534;51.028;13.716;2022-08-19T01:43:39;18.23;;;14.75;;
47772;SDS011;33534;51.028;13.716;2022-08-19T01:46:05;14.82;;;13.35;;
47772;SDS011;33534;51.028;13.716;2022-08-19T01:48:35;15.95;;;14.38;;
47772;SDS011;33534;51.028;13.716;2022-08-19T01:51:03;15.05;;;13.52;;
47772;SDS011;33534;51.028;13.716;2022-08-19T01:53:29;15.70;;;14.27;;
47772;SDS011;33534;51.028;13.716;2022-08-19T01:55:55;19.20;;;15.27;;
47772;SDS011;33534;51.028;13.716;2022-08-19T01:58:23;17.10;;;15.50;;
47772;SDS011;33534;51.028;13.716;2022-08-19T02:00:54;16.73;;;14.20;;
47772;SDS011;33534;51.028;13.716;2022-08-19T02:03:19;15.68;;;14.15;;
47772;SDS011;33534;51.028;13.716;2022-08-19T02:05:45;16.20;;;14.55;;
47772;SDS011;33534;51.028;13.716;2022-08-19T02:08:11;17.48;;;15.60;;
47772;SDS011;33534;51.028;13.716;2022-08-19T02:10:41;17.25;;;15.43;;
47772;SDS011;33534;51.028;13.716;2022-08-19T02:13:08;16.15;;;14.55;;
47772;SDS011;33534;51.028;13.716;2022-08-19T02:15:35;16.58;;;14.73;;
47772;SDS011;33534;51.028;13.716;2022-08-19T02:18:01;17.88;;;14.82;;
47772;SDS011;33534;51.028;13.716;2022-08-19T02:20:26;17.80;;;14.85;;
47772;SDS011;33534;51.028;13.716;2022-08-19T02:22:52;17.67;;;13.73;;
47772;SDS011;33534;51.028;13.716;2022-08-19T02:25:18;15.45;;;13.88;;
47772;SDS011;33534;51.028;13.716;2022-08-19T02:27:43;17.85;;;14.55;;
47772;SDS011;33534;51.028;13.716;2022-08-19T02:30:10;15.15;;;13.57;;
47772;SDS011;33534;51.028;13.716;2022-08-19T02:32:38;16.50;;;14.90;;
47772;SDS011;33534;51.028;13.716;2022-08-19T02:35:04;16.88;;;14.77;;
47772;SDS011;33534;51.028;13.716;2022-08-19T02:37:30;33.83;;;24.23;;
47772;SDS011;33534;51.028;13.716;2022-08-19T02:40:15;54.97;;;39.10;;
47772;SDS011;33534;51.028;13.716;2022-08-19T02:42:42;20.13;;;16.48;;
47772;SDS011;33534;51.028;13.716;2022-08-19T02:45:08;15.45;;;13.95;;
47772;SDS011;33534;51.028;13.716;2022-08-19T02:47:34;17.50;;;15.60;;
47772;SDS011;33534;51.028;13.716;2022-08-19T02:50:00;17.35;;;15.55;;
47772;SDS011;33534;51.028;13.716;2022-08-19T02:52:27;16.05;;;14.50;;
47772;SDS011;33534;51.028;13.716;2022-08-19T02:54:53;18.70;;;14.43;;
47772;SDS011;33534;51.028;13.716;2022-08-19T02:57:20;16.60;;;14.90;;
47772;SDS011;33534;51.028;13.716;2022-08-19T02:59:46;22.75;;;19.98;;
47772;SDS011;33534;51.028;13.716;2022-08-19T03:02:11;120.00;;;75.93;;
47772;SDS011;33534;51.028;13.716;2022-08-19T03:04:37;67.95;;;46.95;;
47772;SDS011;33534;51.028;13.716;2022-08-19T03:07:02;30.13;;;22.27;;
47772;SDS011;33534;51.028;13.716;2022-08-19T03:09:28;26.15;;;19.85;;
47772;SDS011;33534;51.028;13.716;2022-08-19T03:11:55;31.83;;;22.45;;
47772;SDS011;33534;51.028;13.716;2022-08-19T03:14:21;20.40;;;18.23;;
47772;SDS011;33534;51.028;13.716;2022-08-19T03:16:51;27.38;;;20.23;;
47772;SDS011;33534;51.028;13.716;2022-08-19T03:19:17;18.27;;;16.35;;
47772;SDS011;33534;51.028;13.716;2022-08-19T03:21:46;16.88;;;15.10;;
47772;SDS011;33534;51.028;13.716;2022-08-19T03:24:12;20.02;;;16.50;;
47772;SDS011;33534;51.028;13.716;2022-08-19T03:26:40;19.35;;;17.27;;
47772;SDS011;33534;51.028;13.716;2022-08-19T03:29:07;18.98;;;16.55;;
47772;SDS011;33534;51.028;13.716;2022-08-19T03:31:35;18.60;;;16.80;;
47772;SDS011;33534;51.028;13.716;2022-08-19T03:34:00;17.65;;;15.98;;
47772;SDS011;33534;51.028;13.716;2022-08-19T03:36:26;18.55;;;16.30;;
47772;SDS011;33534;51.028;13.716;2022-08-19T03:38:53;19.50;;;17.60;;
47772;SDS011;33534;51.028;13.716;2022-08-19T03:41:22;18.90;;;16.92;;
47772;SDS011;33534;51.028;13.716;2022-08-19T03:43:51;17.73;;;16.00;;
47772;SDS011;33534;51.028;13.716;2022-08-19T03:46:20;19.33;;;15.85;;
47772;SDS011;33534;51.028;13.716;2022-08-19T03:51:26;18.27;;;15.50;;
47772;SDS011;33534;51.028;13.716;2022-08-19T03:53:56;17.55;;;15.75;;
47772;SDS011;33534;51.028;13.716;2022-08-19T03:56:24;18.60;;;15.68;;
47772;SDS011;33534;51.028;13.716;2022-08-19T03:58:50;18.95;;;17.02;;
47772;SDS011;33534;51.028;13.716;2022-08-19T04:01:19;18.58;;;16.58;;
47772;SDS011;33534;51.028;13.716;2022-08-19T04:03:47;21.20;;;17.02;;
47772;SDS011;33534;51.028;13.716;2022-08-19T04:08:40;19.15;;;16.95;;
47772;SDS011;33534;51.028;13.716;2022-08-19T04:11:08;19.25;;;16.42;;
47772;SDS011;33534;51.028;13.716;2022-08-19T04:13:35;21.55;;;18.23;;
47772;SDS011;33534;51.028;13.716;2022-08-19T04:16:01;19.13;;;17.25;;
47772;SDS011;33534;51.028;13.716;2022-08-19T04:18:27;20.23;;;17.48;;
47772;SDS011;33534;51.028;13.716;2022-08-19T04:20:54;20.00;;;17.85;;
47772;SDS011;33534;51.028;13.716;2022-08-19T04:23:20;17.92;;;16.13;;
47772;SDS011;33534;51.028;13.716;2022-08-19T04:25:46;19.00;;;17.10;;
47772;SDS011;33534;51.028;13.716;2022-08-19T04:28:12;20.08;;;17.98;;
47772;SDS011;33534;51.028;13.716;2022-08-19T04:30:44;19.42;;;17.63;;
47772;SDS011;33534;51.028;13.716;2022-08-19T04:33:12;20.88;;;18.58;;
47772;SDS011;33534;51.028;13.716;2022-08-19T04:35:41;18.23;;;16.40;;
47772;SDS011;33534;51.028;13.716;2022-08-19T04:38:09;19.67;;;17.65;;
47772;SDS011;33534;51.028;13.716;2022-08-19T04:40:42;18.67;;;16.88;;
47772;SDS011;33534;51.028;13.716;2022-08-19T04:43:28;18.85;;;16.42;;
47772;SDS011;33534;51.028;13.716;2022-08-19T04:45:55;17.50;;;15.75;;
47772;SDS011;33534;51.028;13.716;2022-08-19T04:48:21;20.88;;;18.55;;
47772;SDS011;33534;51.028;13.716;2022-08-19T04:50:55;19.52;;;17.63;;
47772;SDS011;33534;51.028;13.716;2022-08-19T04:53:25;19.77;;;17.67;;
47772;SDS011;33534;51.028;13.716;2022-08-19T04:55:53;19.17;;;16.92;;
47772;SDS011;33534;51.028;13.716;2022-08-19T04:58:32;19.75;;;15.95;;
47772;SDS011;33534;51.028;13.716;2022-08-19T05:01:00;21.38;;;18.00;;
47772;SDS011;33534;51.028;13.716;2022-08-19T05:03:26;18.50;;;16.35;;
47772;SDS011;33534;51.028;13.716;2022-08-19T05:05:52;19.33;;;17.42;;
47772;SDS011;33534;51.028;13.716;2022-08-19T05:08:19;22.23;;;19.80;;
47772;SDS011;33534;51.028;13.716;2022-08-19T05:10:47;19.63;;;17.33;;
47772;SDS011;33534;51.028;13.716;2022-08-19T05:13:15;21.48;;;18.30;;
47772;SDS011;33534;51.028;13.716;2022-08-19T05:15:42;23.58;;;19.77;;
47772;SDS011;33534;51.028;13.716;2022-08-19T05:18:08;21.88;;;19.67;;
47772;SDS011;33534;51.028;13.716;2022-08-19T05:20:52;22.35;;;20.02;;
47772;SDS011;33534;51.028;13.716;2022-08-19T05:23:37;21.30;;;19.10;;
47772;SDS011;33534;51.028;13.716;2022-08-19T05:26:02;22.30;;;18.33;;
47772;SDS011;33534;51.028;13.716;2022-08-19T05:28:28;22.20;;;17.67;;
47772;SDS011;33534;51.028;13.716;2022-08-19T05:30:54;20.05;;;17.75;;
47772;SDS011;33534;51.028;13.716;2022-08-19T05:33:20;24.13;;;19.25;;
47772;SDS011;33534;51.028;13.716;2022-08-19T05:35:46;25.05;;;20.50;;
47772;SDS011;33534;51.028;13.716;2022-08-19T05:38:14;24.45;;;20.40;;
47772;SDS011;33534;51.028;13.716;2022-08-19T05:40:40;21.80;;;19.17;;
47772;SDS011;33534;51.028;13.716;2022-08-19T05:43:08;20.88;;;18.77;;
47772;SDS011;33534;51.028;13.716;2022-08-19T05:45:39;22.52;;;19.75;;
47772;SDS011;33534;51.028;13.716;2022-08-19T05:48:05;20.83;;;18.67;;
47772;SDS011;33534;51.028;13.716;2022-08-19T05:50:30;21.75;;;19.15;;
47772;SDS011;33534;51.028;13.716;2022-08-19T05:52:56;21.42;;;19.10;;
47772;SDS011;33534;51.028;13.716;2022-08-19T05:55:22;20.58;;;17.67;;
47772;SDS011;33534;51.028;13.716;2022-08-19T05:57:48;20.38;;;18.25;;
47772;SDS011;33534;51.028;13.716;2022-08-19T06:00:14;19.45;;;17.55;;
47772;SDS011;33534;51.028;13.716;2022-08-19T06:02:40;19.10;;;16.23;;
47772;SDS011;33534;51.028;13.716;2022-08-19T06:05:06;18.08;;;16.17;;
47772;SDS011;33534;51.028;13.716;2022-08-19T06:07:34;17.70;;;15.95;;
47772;SDS011;33534;51.028;13.716;2022-08-19T06:10:00;16.58;;;14.95;;
47772;SDS011;33534;51.028;13.716;2022-08-19T06:12:29;19.42;;;15.65;;
47772;SDS011;33534;51.028;13.716;2022-08-19T06:14:59;19.55;;;15.75;;
47772;SDS011;33534;51.028;13.716;2022-08-19T06:17:27;17.52;;;14.65;;
47772;SDS011;33534;51.028;13.716;2022-08-19T06:19:54;16.05;;;13.88;;
47772;SDS011;33534;51.028;13.716;2022-08-19T06:22:20;15.90;;;13.02;;
47772;SDS011;33534;51.028;13.716;2022-08-19T06:24:46;13.43;;;11.80;;
47772;SDS011;33534;51.028;13.716;2022-08-19T06:27:11;11.85;;;10.63;;
47772;SDS011;33534;51.028;13.716;2022-08-19T06:29:37;13.45;;;12.02;;
47772;SDS011;33534;51.028;13.716;2022-08-19T06:32:03;22.60;;;11.70;;
47772;SDS011;33534;51.028;13.716;2022-08-19T06:34:29;12.80;;;11.50;;
47772;SDS011;33534;51.028;13.716;2022-08-19T06:36:58;13.90;;;10.65;;
47772;SDS011;33534;51.028;13.716;2022-08-19T06:39:30;12.90;;;11.15;;
47772;SDS011;33534;51.028;13.716;2022-08-19T06:42:03;15.40;;;11.90;;
47772;SDS011;33534;51.028;13.716;2022-08-19T06:44:32;12.32;;;10.27;;
47772;SDS011;33534;51.028;13.716;2022-08-19T06:47:04;18.23;;;16.42;;
47772;SDS011;33534;51.028;13.716;2022-08-19T06:49:31;21.73;;;15.67;;
47772;SDS011;33534;51.028;13.716;2022-08-19T06:51:57;16.52;;;13.38;;
47772;SDS011;33534;51.028;13.716;2022-08-19T06:54:24;19.42;;;13.82;;
47772;SDS011;33534;51.028;13.716;2022-08-19T06:56:50;15.50;;;13.60;;
47772;SDS011;33534;51.028;13.716;2022-08-19T06:59:18;32.35;;;13.68;;
47772;SDS011;33534;51.028;13.716;2022-08-19T07:01:47;28.48;;;16.02;;
47772;SDS011;33534;51.028;13.716;2022-08-19T07:04:18;24.75;;;14.48;;
47772;SDS011;33534;51.028;13.716;2022-08-19T07:06:48;29.70;;;12.57;;
47772;SDS011;33534;51.028;13.716;2022-08-19T07:09:15;30.65;;;16.23;;
47772;SDS011;33534;51.028;13.716;2022-08-19T07:11:43;34.83;;;15.75;;
47772;SDS011;33534;51.028;13.716;2022-08-19T07:14:11;29.88;;;15.18;;
47772;SDS011;33534;51.028;13.716;2022-08-19T07:16:37;23.27;;;14.57;;
47772;SDS011;33534;51.028;13.716;2022-08-19T07:19:02;19.58;;;14.23;;
47772;SDS011;33534;51.028;13.716;2022-08-19T07:21:28;15.80;;;13.45;;
47772;SDS011;33534;51.028;13.716;2022-08-19T07:23:55;16.38;;;14.48;;
47772;SDS011;33534;51.028;13.716;2022-08-19T07:26:25;19.17;;;14.35;;
47772;SDS011;33534;51.028;13.716;2022-08-19T07:28:54;32.95;;;14.90;;
47772;SDS011;33534;51.028;13.716;2022-08-19T07:31:22;29.55;;;15.38;;
47772;SDS011;33534;51.028;13.716;2022-08-19T07:33:50;21.65;;;15.10;;
47772;SDS011;33534;51.028;13.716;2022-08-19T07:36:19;17.48;;;14.75;;
47772;SDS011;33534;51.028;13.716;2022-08-19T07:38:48;22.55;;;15.65;;
47772;SDS011;33534;51.028;13.716;2022-08-19T07:41:16;19.35;;;15.35;;
47772;SDS011;33534;51.028;13.716;2022-08-19T07:43:46;20.17;;;15.40;;
47772;SDS011;33534;51.028;13.716;2022-08-19T07:46:13;22.70;;;16.27;;
47772;SDS011;33534;51.028;13.716;2022-08-19T07:48:39;22.92;;;16.02;;
47772;SDS011;33534;51.028;13.716;2022-08-19T07:51:07;20.63;;;15.32;;
47772;SDS011;33534;51.028;13.716;2022-08-19T07:53:33;22.25;;;15.32;;
47772;SDS011;33534;51.028;13.716;2022-08-19T07:56:00;31.35;;;16.33;;
47772;SDS011;33534;51.028;13.716;2022-08-19T07:58:27;22.92;;;16.50;;
47772;SDS011;33534;51.028;13.716;2022-08-19T08:00:53;32.45;;;16.85;;
47772;SDS011;33534;51.028;13.716;2022-08-19T08:03:20;20.42;;;15.88;;
47772;SDS011;33534;51.028;13.716;2022-08-19T08:06:07;18.05;;;14.60;;
47772;SDS011;33534;51.028;13.716;2022-08-19T08:08:51;19.92;;;16.00;;
47772;SDS011;33534;51.028;13.716;2022-08-19T08:11:35;43.33;;;34.78;;
47772;SDS011;33534;51.028;13.716;2022-08-19T08:14:06;38.80;;;31.13;;
47772;SDS011;33534;51.028;13.716;2022-08-19T08:16:34;20.55;;;14.68;;
47772;SDS011;33534;51.028;13.716;2022-08-19T08:19:03;24.15;;;19.10;;
47772;SDS011;33534;51.028;13.716;2022-08-19T08:21:30;16.45;;;14.35;;
47772;SDS011;33534;51.028;13.716;2022-08-19T08:23:56;29.80;;;17.80;;
47772;SDS011;33534;51.028;13.716;2022-08-19T08:26:22;17.40;;;14.70;;
47772;SDS011;33534;51.028;13.716;2022-08-19T08:28:49;22.80;;;14.98;;
47772;SDS011;33534;51.028;13.716;2022-08-19T08:31:16;16.38;;;13.40;;
47772;SDS011;33534;51.028;13.716;2022-08-19T08:33:43;20.33;;;13.57;;
47772;SDS011;33534;51.028;13.716;2022-08-19T08:36:09;22.00;;;14.48;;
47772;SDS011;33534;51.028;13.716;2022-08-19T08:38:36;15.65;;;13.40;;
47772;SDS011;33534;51.028;13.716;2022-08-19T08:41:12;18.02;;;14.07;;
47772;SDS011;33534;51.028;13.716;2022-08-19T08:43:47;15.23;;;13.77;;
47772;SDS011;33534;51.028;13.716;2022-08-19T08:46:21;14.57;;;12.82;;
47772;SDS011;33534;51.028;13.716;2022-08-19T08:53:48;14.88;;;13.15;;
47772;SDS011;33534;51.028;13.716;2022-08-19T08:56:16;14.55;;;12.45;;
47772;SDS011;33534;51.028;13.716;2022-08-19T08:58:48;13.95;;;11.65;;
47772;SDS011;33534;51.028;13.716;2022-08-19T09:01:25;12.98;;;11.75;;
47772;SDS011;33534;51.028;13.716;2022-08-19T09:03:51;11.38;;;10.27;;
47772;SDS011;33534;51.028;13.716;2022-08-19T09:06:26;12.57;;;10.15;;
47772;SDS011;33534;51.028;13.716;2022-08-19T09:16:50;11.23;;;8.97;;
47772;SDS011;33534;51.028;13.716;2022-08-19T09:19:16;10.68;;;9.68;;
47772;SDS011;33534;51.028;13.716;2022-08-19T09:21:42;10.38;;;9.38;;
47772;SDS011;33534;51.028;13.716;2022-08-19T09:24:08;10.57;;;9.48;;
47772;SDS011;33534;51.028;13.716;2022-08-19T09:26:34;10.30;;;8.85;;
47772;SDS011;33534;51.028;13.716;2022-08-19T09:29:00;11.68;;;9.38;;
47772;SDS011;33534;51.028;13.716;2022-08-19T09:31:27;10.77;;;9.65;;
47772;SDS011;33534;51.028;13.716;2022-08-19T09:33:54;10.63;;;9.52;;
47772;SDS011;33534;51.028;13.716;2022-08-19T09:36:24;10.32;;;9.23;;
47772;SDS011;33534;51.028;13.716;2022-08-19T09:38:51;10.63;;;9.68;;
47772;SDS011;33534;51.028;13.716;2022-08-19T09:41:18;10.48;;;9.20;;
47772;SDS011;33534;51.028;13.716;2022-08-19T09:43:46;11.25;;;10.05;;
47772;SDS011;33534;51.028;13.716;2022-08-19T09:46:13;11.02;;;10.02;;
47772;SDS011;33534;51.028;13.716;2022-08-19T09:48:42;11.68;;;10.10;;
47772;SDS011;33534;51.028;13.716;2022-08-19T09:51:13;11.13;;;10.02;;
47772;SDS011;33534;51.028;13.716;2022-08-19T09:53:41;12.43;;;11.32;;
47772;SDS011;33534;51.028;13.716;2022-08-19T09:56:11;12.27;;;11.07;;
47772;SDS011;33534;51.028;13.716;2022-08-19T09:58:38;12.10;;;11.00;;
47772;SDS011;33534;51.028;13.716;2022-08-19T10:01:04;11.60;;;10.50;;
47772;SDS011;33534;51.028;13.716;2022-08-19T10:03:31;15.02;;;10.90;;
47772;SDS011;33534;51.028;13.716;2022-08-19T10:06:02;11.63;;;10.35;;
47772;SDS011;33534;51.028;13.716;2022-08-19T10:10:58;10.35;;;9.35;;
47772;SDS011;33534;51.028;13.716;2022-08-19T10:13:27;9.98;;;8.98;;
47772;SDS011;33534;51.028;13.716;2022-08-19T10:15:55;9.75;;;8.63;;
47772;SDS011;33534;51.028;13.716;2022-08-19T10:18:27;9.85;;;8.10;;
47772;SDS011;33534;51.028;13.716;2022-08-19T10:21:01;9.10;;;8.30;;
47772;SDS011;33534;51.028;13.716;2022-08-19T10:23:35;10.15;;;8.05;;
47772;SDS011;33534;51.028;13.716;2022-08-19T10:26:04;8.00;;;7.20;;
47772;SDS011;33534;51.028;13.716;2022-08-19T10:28:31;9.13;;;7.53;;
47772;SDS011;33534;51.028;13.716;2022-08-19T10:31:04;9.95;;;7.80;;
47772;SDS011;33534;51.028;13.716;2022-08-19T10:33:31;10.27;;;7.25;;
47772;SDS011;33534;51.028;13.716;2022-08-19T10:36:01;9.90;;;6.53;;
47772;SDS011;33534;51.028;13.716;2022-08-19T10:38:32;6.55;;;5.95;;
47772;SDS011;33534;51.028;13.716;2022-08-19T10:41:06;10.70;;;6.00;;
47772;SDS011;33534;51.028;13.716;2022-08-19T10:43:36;6.90;;;5.50;;
47772;SDS011;33534;51.028;13.716;2022-08-19T10:46:03;7.07;;;5.55;;
47772;SDS011;33534;51.028;13.716;2022-08-19T10:48:31;5.25;;;4.82;;
47772;SDS011;33534;51.028;13.716;2022-08-19T10:50:58;6.97;;;5.47;;
47772;SDS011;33534;51.028;13.716;2022-08-19T10:54:02;5.93;;;5.32;;
47772;SDS011;33534;51.028;13.716;2022-08-19T10:56:28;5.28;;;4.35;;
47772;SDS011;33534;51.028;13.716;2022-08-19T10:59:12;5.60;;;5.10;;
47772;SDS011;33534;51.028;13.716;2022-08-19T11:01:39;4.57;;;4.18;;
47772;SDS011;33534;51.028;13.716;2022-08-19T11:04:06;5.25;;;4.30;;
47772;SDS011;33534;51.028;13.716;2022-08-19T11:06:35;4.90;;;4.40;;
47772;SDS011;33534;51.028;13.716;2022-08-19T11:09:01;5.30;;;4.80;;
47772;SDS011;33534;51.028;13.716;2022-08-19T11:11:28;4.97;;;4.57;;
47772;SDS011;33534;51.028;13.716;2022-08-19T11:13:53;4.05;;;3.75;;
47772;SDS011;33534;51.028;13.716;2022-08-19T11:16:20;4.97;;;4.50;;
47772;SDS011;33534;51.028;13.716;2022-08-19T11:18:53;5.07;;;4.30;;
47772;SDS011;33534;51.028;13.716;2022-08-19T11:23:49;5.53;;;5.13;;
47772;SDS011;33534;51.028;13.716;2022-08-19T11:26:18;7.55;;;6.85;;
47772;SDS011;33534;51.028;13.716;2022-08-19T11:28:45;6.25;;;5.65;;
47772;SDS011;33534;51.028;13.716;2022-08-19T11:31:12;5.57;;;5.18;;
47772;SDS011;33534;51.028;13.716;2022-08-19T11:33:43;6.43;;;5.82;;
47772;SDS011;33534;51.028;13.716;2022-08-19T11:36:10;6.80;;;6.18;;
47772;SDS011;33534;51.028;13.716;2022-08-19T11:38:36;8.73;;;7.93;;
47772;SDS011;33534;51.028;13.716;2022-08-19T11:41:03;9.52;;;7.50;;
47772;SDS011;33534;51.028;13.716;2022-08-19T11:43:32;9.02;;;8.23;;
47772;SDS011;33534;51.028;13.716;2022-08-19T11:45:59;9.55;;;8.65;;
47772;SDS011;33534;51.028;13.716;2022-08-19T11:48:25;10.90;;;9.80;;
47772;SDS011;33534;51.028;13.716;2022-08-19T11:50:52;11.23;;;10.05;;
47772;SDS011;33534;51.028;13.716;2022-08-19T11:53:20;11.38;;;10.27;;
47772;SDS011;33534;51.028;13.716;2022-08-19T11:55:46;10.90;;;9.88;;
47772;SDS011;33534;51.028;13.716;2022-08-19T11:58:13;11.57;;;10.38;;
47772;SDS011;33534;51.028;13.716;2022-08-19T12:00:40;11.32;;;10.05;;
47772;SDS011;33534;51.028;13.716;2022-08-19T12:03:07;11.43;;;10.15;;
47772;SDS011;33534;51.028;13.716;2022-08-19T12:05:33;12.93;;;9.90;;
47772;SDS011;33534;51.028;13.716;2022-08-19T12:08:01;11.20;;;10.10;;
47772;SDS011;33534;51.028;13.716;2022-08-19T12:10:27;11.20;;;9.95;;
47772;SDS011;33534;51.028;13.716;2022-08-19T12:12:52;13.05;;;11.52;;
47772;SDS011;33534;51.028;13.716;2022-08-19T12:15:18;13.35;;;12.15;;
47772;SDS011;33534;51.028;13.716;2022-08-19T12:17:44;16.63;;;12.75;;
47772;SDS011;33534;51.028;13.716;2022-08-19T12:20:10;13.73;;;12.35;;
47772;SDS011;33534;51.028;13.716;2022-08-19T12:22:38;14.18;;;12.80;;
47772;SDS011;33534;51.028;13.716;2022-08-19T12:25:06;23.00;;;18.92;;
47772;SDS011;33534;51.028;13.716;2022-08-19T12:27:33;15.48;;;13.98;;
47772;SDS011;33534;51.028;13.716;2022-08-19T12:30:00;13.70;;;12.40;;
47772;SDS011;33534;51.028;13.716;2022-08-19T12:32:27;15.00;;;13.60;;
47772;SDS011;33534;51.028;13.716;2022-08-19T12:34:53;33.00;;;23.00;;
47772;SDS011;33534;51.028;13.716;2022-08-19T12:37:19;107.53;;;62.20;;
47772;SDS011;33534;51.028;13.716;2022-08-19T12:39:45;48.17;;;33.42;;
47772;SDS011;33534;51.028;13.716;2022-08-19T12:42:12;127.32;;;76.10;;
47772;SDS011;33534;51.028;13.716;2022-08-19T12:44:41;47.15;;;33.30;;
47772;SDS011;33534;51.028;13.716;2022-08-19T12:47:08;101.40;;;59.90;;
47772;SDS011;33534;51.028;13.716;2022-08-19T12:49:35;41.10;;;28.45;;
47772;SDS011;33534;51.028;13.716;2022-08-19T12:52:07;18.80;;;16.85;;
47772;SDS011;33534;51.028;13.716;2022-08-19T12:54:35;20.50;;;15.52;;
47772;SDS011;33534;51.028;13.716;2022-08-19T12:57:09;17.83;;;15.93;;
47772;SDS011;33534;51.028;13.716;2022-08-19T12:59:36;17.88;;;15.95;;
47772;SDS011;33534;51.028;13.716;2022-08-19T13:02:03;19.60;;;16.48;;
47772;SDS011;33534;51.028;13.716;2022-08-19T13:04:31;19.13;;;17.23;;
47772;SDS011;33534;51.028;13.716;2022-08-19T13:06:59;20.35;;;18.35;;
47772;SDS011;33534;51.028;13.716;2022-08-19T13:09:25;23.75;;;19.25;;
47772;SDS011;33534;51.028;13.716;2022-08-19T13:11:51;17.50;;;15.80;;
47772;SDS011;33534;51.028;13.716;2022-08-19T13:14:17;18.50;;;15.63;;
47772;SDS011;33534;51.028;13.716;2022-08-19T13:16:43;19.88;;;16.17;;
47772;SDS011;33534;51.028;13.716;2022-08-19T13:19:09;18.40;;;16.63;;
47772;SDS011;33534;51.028;13.716;2022-08-19T13:21:35;19.77;;;17.83;;
47772;SDS011;33534;51.028;13.716;2022-08-19T13:24:01;17.00;;;15.35;;
47772;SDS011;33534;51.028;13.716;2022-08-19T13:26:27;19.77;;;17.70;;
47772;SDS011;33534;51.028;13.716;2022-08-19T13:28:53;27.15;;;23.15;;
47772;SDS011;33534;51.028;13.716;2022-08-19T13:31:39;18.50;;;16.77;;
47772;SDS011;33534;51.028;13.716;2022-08-19T13:34:26;18.75;;;16.75;;
47772;SDS011;33534;51.028;13.716;2022-08-19T13:37:00;17.95;;;16.05;;
47772;SDS011;33534;51.028;13.716;2022-08-19T13:39:28;17.25;;;15.55;;
47772;SDS011;33534;51.028;13.716;2022-08-19T13:41:54;19.30;;;17.42;;
47772;SDS011;33534;51.028;13.716;2022-08-19T13:44:20;22.27;;;19.92;;
47772;SDS011;33534;51.028;13.716;2022-08-19T13:46:46;20.77;;;18.67;;
47772;SDS011;33534;51.028;13.716;2022-08-19T13:49:14;24.25;;;21.90;;
47772;SDS011;33534;51.028;13.716;2022-08-19T13:51:41;26.55;;;23.75;;
47772;SDS011;33534;51.028;13.716;2022-08-19T13:54:08;26.13;;;23.38;;
47772;SDS011;33534;51.028;13.716;2022-08-19T13:56:34;28.95;;;26.00;;
47772;SDS011;33534;51.028;13.716;2022-08-19T13:59:04;27.95;;;25.05;;
47772;SDS011;33534;51.028;13.716;2022-08-19T14:01:30;30.50;;;26.33;;
47772;SDS011;33534;51.028;13.716;2022-08-19T14:03:55;30.20;;;26.95;;
47772;SDS011;33534;51.028;13.716;2022-08-19T14:06:21;27.98;;;25.10;;
47772;SDS011;33534;51.028;13.716;2022-08-19T14:08:47;30.15;;;25.77;;
47772;SDS011;33534;51.028;13.716;2022-08-19T14:11:13;33.65;;;27.58;;
47772;SDS011;33534;51.028;13.716;2022-08-19T14:13:39;27.73;;;24.13;;
47772;SDS011;33534;51.028;13.716;2022-08-19T14:16:09;28.80;;;25.73;;
47772;SDS011;33534;51.028;13.716;2022-08-19T14:18:36;30.85;;;26.92;;
47772;SDS011;33534;51.028;13.716;2022-08-19T14:21:02;24.60;;;22.05;;
47772;SDS011;33534;51.028;13.716;2022-08-19T14:23:29;24.92;;;22.30;;
47772;SDS011;33534;51.028;13.716;2022-08-19T14:26:02;29.83;;;23.00;;
47772;SDS011;33534;51.028;13.716;2022-08-19T14:28:29;31.10;;;27.45;;
47772;SDS011;33534;51.028;13.716;2022-08-19T14:30:55;29.08;;;25.08;;
47772;SDS011;33534;51.028;13.716;2022-08-19T14:33:21;26.98;;;24.17;;
47772;SDS011;33534;51.028;13.716;2022-08-19T14:35:46;26.90;;;23.25;;
47772;SDS011;33534;51.028;13.716;2022-08-19T14:38:16;30.33;;;24.75;;
47772;SDS011;33534;51.028;13.716;2022-08-19T14:40:43;32.03;;;27.17;;
47772;SDS011;33534;51.028;13.716;2022-08-19T14:43:09;29.85;;;26.20;;